Airdrie Aerodrome

CEF4 · 艾伯塔, 加拿大

罗盘
风向 的 风向 170° Airdrie Airport 12/30
风: 6 kt, 2 beaufort

5 kt

3 kt
改变
0 2.000 4.000 6.000 8.000 10.000
BKN 5.400 ft
OVC 6.300 ft
SPECI CYYC 051400Z 17006KT 4SM -SN BR BKN054 OVC063 M10/M12 A2982 RMK SC6SC2 SLP166

METAR Airdrie Airport - CEF4

Airdrie Airport是,加拿大中的小机场。 该机场有一条跑道: 12/30. 该领域的国际民航组织标志是CEF4.

这份报告是针对2022年12月5日 07:00, 当地时间在Calgary International Airport进行的。

机场观察

风向为170°,速度为6 kt。

可见度为4 mi。

有碎云在5.400 ft的高度 和 乌云密布在6.300 ft的高度。 破损或更高的上限为5.400 ft。

当前天气为光 雪, 薄雾。 温度为-10 °C,阵风为-18 °C。 露点为-12 °C,相对湿度为85%。 海平面上的气压为29,82 inHg (QNH)。

白天

今天,太阳从08:23升起,在16:29降落。 这适用于Airdrie Airport,世界夏令时可能有所不同。 当地时间与世界标准时间之间的时差为-7 小时。 当前,没有夏令时有效。

公司介绍

本场上唯一已知的公司是Robot Skies。

体会

到Vliegles.nl去找飞行课程,跳伞和其他飞行体验。 浏览页面,了解Airdrie Airport附近所有可用的活动。 你也可以使用搜索功能来寻找你所在地附近的特定飞行课程、跳伞或其他飞行体验。

跑道

Id 标题 侧风 逆风 侧风 %
12/30 137°-317° 3 kt 5 kt 54 %

逆风成分最大的方向会被突出显示,并用于横风计算。 这并不一定意味着这个方向在使用。

乌云

5.400 ft BKN 碎云
6.300 ft OVC 乌云密布

温度 & 天气

天气 光 雪
薄雾
温度 -10 °C
露点 -12 °C
相对湿度 85%
风寒 -18 °C
Kp-index 2 (0-9)

评论

SLP166海平面压力为30,02 inHg (30,02 inHg)
SC6SC2

白天

日出
08:23 (1:04)
中午
12:26
日落
16:30

小工具

你想在你的网站上有一个关于Airdrie Airport的当前航空天气(METAR)的小部件吗?

显示HTML代码

我们和第三方通过cookies跟踪您在我们网站上的互联网行为。如果你继续,我们认为你同意我们的饼干政策